createdAt,value
2023-10-29T00:01:40.770Z,10.40
2023-10-29T00:04:08.027Z,10.40
2023-10-29T00:06:35.834Z,10.40
2023-10-29T00:09:02.909Z,10.50
2023-10-29T00:11:30.288Z,10.40
2023-10-29T00:13:57.386Z,10.40
2023-10-29T00:16:24.426Z,10.40
2023-10-29T00:18:51.588Z,10.40
2023-10-29T00:21:18.604Z,10.40
2023-10-29T00:23:45.760Z,10.40
2023-10-29T00:26:12.935Z,10.40
2023-10-29T00:28:42.605Z,10.30
2023-10-29T00:31:09.715Z,10.40
2023-10-29T00:33:36.839Z,10.40
2023-10-29T00:36:05.884Z,10.40
2023-10-29T00:38:33.135Z,10.30
2023-10-29T00:41:00.253Z,10.30
2023-10-29T00:43:27.271Z,10.30
2023-10-29T00:45:57.182Z,10.30
2023-10-29T00:48:24.696Z,10.30
2023-10-29T00:50:52.015Z,10.30
2023-10-29T00:53:20.167Z,10.30
2023-10-29T00:55:48.892Z,10.30
2023-10-29T00:58:17.912Z,10.30
2023-10-29T01:00:46.317Z,10.30
2023-10-29T01:03:13.763Z,10.30
2023-10-29T01:05:41.409Z,10.30
2023-10-29T01:08:09.194Z,10.20
2023-10-29T01:10:36.240Z,10.20
2023-10-29T01:13:03.467Z,10.30
2023-10-29T01:15:30.553Z,10.30
2023-10-29T01:17:57.764Z,10.20
2023-10-29T01:20:24.966Z,10.20
2023-10-29T01:22:52.110Z,10.20
2023-10-29T01:25:19.250Z,10.20
2023-10-29T01:27:46.395Z,10.20
2023-10-29T01:30:14.745Z,10.20
2023-10-29T01:32:42.064Z,10.20
2023-10-29T01:35:09.999Z,10.20
2023-10-29T01:37:37.078Z,10.20
2023-10-29T01:40:05.111Z,10.20
2023-10-29T01:42:32.172Z,10.20
2023-10-29T01:44:59.287Z,10.20
2023-10-29T01:47:26.746Z,10.20
2023-10-29T01:49:53.773Z,10.10
2023-10-29T01:52:20.942Z,10.10
2023-10-29T01:54:48.256Z,10.10
2023-10-29T01:57:15.405Z,10.10
2023-10-29T01:59:42.495Z,10.10
2023-10-29T02:02:10.308Z,10.10
2023-10-29T02:04:37.399Z,10.10
2023-10-29T02:07:04.698Z,10.10
2023-10-29T02:09:31.775Z,10.10
2023-10-29T02:11:58.951Z,10.10
2023-10-29T02:14:26.085Z,10.10
2023-10-29T02:16:53.284Z,10.10
2023-10-29T02:19:21.097Z,10.20
2023-10-29T02:21:48.189Z,10.10
2023-10-29T02:24:15.243Z,10.10
2023-10-29T02:26:42.344Z,10.20
2023-10-29T02:29:09.821Z,10.10
2023-10-29T02:31:37.543Z,10.10
2023-10-29T02:34:04.704Z,10.20
2023-10-29T02:36:31.796Z,10.10
2023-10-29T02:38:59.351Z,10.10
2023-10-29T02:41:26.429Z,10.10
2023-10-29T02:43:56.129Z,10.20
2023-10-29T02:46:23.186Z,10.20
2023-10-29T02:48:50.252Z,10.20
2023-10-29T02:51:17.515Z,10.20
2023-10-29T02:53:44.723Z,10.20
2023-10-29T02:56:11.800Z,10.20
2023-10-29T02:58:38.958Z,10.20
2023-10-29T03:01:10.656Z,10.20
2023-10-29T03:03:38.523Z,10.20
2023-10-29T03:06:09.581Z,10.30
2023-10-29T03:08:37.745Z,10.30
2023-10-29T03:11:05.276Z,10.30
2023-10-29T03:13:32.482Z,10.30
2023-10-29T03:15:59.614Z,10.30
2023-10-29T03:18:26.854Z,10.40
2023-10-29T03:20:55.519Z,10.40
2023-10-29T03:23:25.016Z,10.30
2023-10-29T03:25:52.775Z,10.30
2023-10-29T03:28:19.979Z,10.40
2023-10-29T03:30:47.038Z,10.30
2023-10-29T03:33:14.232Z,10.30
2023-10-29T03:35:41.592Z,10.40
2023-10-29T03:38:09.109Z,10.30
2023-10-29T03:40:38.265Z,10.30
2023-10-29T03:43:05.414Z,10.30
2023-10-29T03:45:33.157Z,10.30
2023-10-29T03:48:01.546Z,10.30
2023-10-29T03:50:28.702Z,10.30
2023-10-29T03:52:55.799Z,10.30
2023-10-29T03:55:22.896Z,10.30
2023-10-29T03:57:50.022Z,10.30
2023-10-29T04:00:17.362Z,10.30
2023-10-29T04:02:44.565Z,10.30
2023-10-29T04:05:11.797Z,10.30
2023-10-29T04:07:39.113Z,10.30
2023-10-29T04:10:09.026Z,10.30
2023-10-29T04:12:36.213Z,10.30
2023-10-29T04:17:33.656Z,10.20
2023-10-29T04:20:00.785Z,10.20
2023-10-29T04:22:27.884Z,10.20
2023-10-29T04:24:55.047Z,10.20
2023-10-29T04:27:22.551Z,10.20
2023-10-29T04:29:49.723Z,10.20
2023-10-29T04:32:16.887Z,10.20
2023-10-29T04:34:44.006Z,10.20
2023-10-29T04:37:11.077Z,10.20
2023-10-29T04:39:39.739Z,10.20
2023-10-29T04:42:07.010Z,10.20
2023-10-29T04:44:35.094Z,10.20
2023-10-29T04:47:05.158Z,10.20
2023-10-29T04:49:32.301Z,10.20
2023-10-29T04:51:59.425Z,10.20
2023-10-29T04:54:26.494Z,10.20
2023-10-29T04:56:53.662Z,10.20
2023-10-29T04:59:20.782Z,10.10
2023-10-29T05:01:48.003Z,10.10
2023-10-29T05:04:15.063Z,10.20
2023-10-29T05:06:42.131Z,10.20
2023-10-29T05:09:09.421Z,10.10
2023-10-29T05:11:37.068Z,10.10
2023-10-29T05:14:04.165Z,10.10
2023-10-29T05:16:31.470Z,10.10
2023-10-29T05:18:58.821Z,10.10
2023-10-29T05:21:25.908Z,10.10
2023-10-29T05:23:53.067Z,10.10
2023-10-29T05:26:22.260Z,10.10
2023-10-29T05:28:51.208Z,10.10
2023-10-29T05:31:18.379Z,10.00
2023-10-29T05:33:46.380Z,10.00
2023-10-29T05:36:13.415Z,10.00
2023-10-29T05:38:40.644Z,9.90
2023-10-29T05:41:07.765Z,9.90
2023-10-29T05:43:35.721Z,9.90
2023-10-29T05:46:02.863Z,9.90
2023-10-29T05:48:30.135Z,9.90
2023-10-29T05:50:57.531Z,9.90
2023-10-29T05:53:24.649Z,9.90
2023-10-29T05:55:52.155Z,9.90
2023-10-29T05:58:19.254Z,9.90
2023-10-29T06:00:47.577Z,9.90
2023-10-29T06:03:14.742Z,9.90
2023-10-29T06:05:41.836Z,9.90
2023-10-29T06:08:09.012Z,9.90
2023-10-29T06:10:36.112Z,9.80
2023-10-29T06:13:03.155Z,9.80
2023-10-29T06:15:30.346Z,9.80
2023-10-29T06:17:57.632Z,9.80
2023-10-29T06:20:24.907Z,9.80
2023-10-29T06:22:52.044Z,9.80
2023-10-29T06:25:19.106Z,9.80
2023-10-29T06:27:46.361Z,9.80
2023-10-29T06:30:13.550Z,9.80
2023-10-29T06:32:41.223Z,9.80
2023-10-29T06:35:08.647Z,9.80
2023-10-29T06:37:36.084Z,9.80
2023-10-29T06:40:04.356Z,9.80
2023-10-29T06:42:31.424Z,9.80
2023-10-29T06:44:58.577Z,9.80
2023-10-29T06:47:25.643Z,9.80
2023-10-29T06:49:52.919Z,9.80
2023-10-29T06:52:19.957Z,9.80
2023-10-29T06:54:47.221Z,9.90
2023-10-29T06:57:14.770Z,9.80
2023-10-29T06:59:42.121Z,9.80
2023-10-29T07:02:09.262Z,9.80
2023-10-29T07:04:36.830Z,9.80
2023-10-29T07:07:04.066Z,9.80
2023-10-29T07:09:31.872Z,9.70
2023-10-29T07:11:58.907Z,9.80
2023-10-29T07:14:26.066Z,9.80
2023-10-29T07:16:53.166Z,9.80
2023-10-29T07:19:20.250Z,9.80
2023-10-29T07:21:47.382Z,9.80
2023-10-29T07:24:14.405Z,9.70
2023-10-29T07:26:42.275Z,9.70
2023-10-29T07:29:09.419Z,9.70
2023-10-29T07:31:36.537Z,9.70
2023-10-29T07:34:03.673Z,9.80
2023-10-29T07:36:30.783Z,9.80
2023-10-29T07:38:58.346Z,9.80
2023-10-29T07:41:25.574Z,9.80
2023-10-29T07:43:52.658Z,9.80
2023-10-29T07:46:21.568Z,9.70
2023-10-29T07:48:48.697Z,9.70
2023-10-29T07:51:15.824Z,9.80
2023-10-29T07:53:42.943Z,9.80
2023-10-29T07:56:11.554Z,9.70
2023-10-29T07:58:39.449Z,9.80
2023-10-29T08:01:17.323Z,9.80
2023-10-29T08:03:47.051Z,9.80
2023-10-29T08:06:15.203Z,9.80
2023-10-29T08:08:42.791Z,9.80
2023-10-29T08:11:22.512Z,9.80
2023-10-29T08:13:51.611Z,9.70
2023-10-29T08:16:20.111Z,9.70
2023-10-29T08:18:47.498Z,9.70
2023-10-29T08:21:14.668Z,9.70
2023-10-29T08:23:41.785Z,9.70
2023-10-29T08:26:08.897Z,9.70
2023-10-29T08:28:37.012Z,9.70
2023-10-29T08:31:04.392Z,9.70
2023-10-29T08:33:31.975Z,9.60
2023-10-29T08:35:59.220Z,9.60
2023-10-29T08:38:26.466Z,9.60
2023-10-29T08:40:53.541Z,9.60
2023-10-29T08:43:20.680Z,9.70
2023-10-29T08:45:47.811Z,9.60
2023-10-29T08:48:15.046Z,9.60
2023-10-29T08:50:42.413Z,9.50
2023-10-29T08:53:09.517Z,9.60
2023-10-29T08:55:39.410Z,9.60
2023-10-29T08:58:06.605Z,9.50
2023-10-29T09:00:45.906Z,9.50
2023-10-29T09:03:15.199Z,9.40
2023-10-29T09:05:44.349Z,9.40
2023-10-29T09:08:12.609Z,9.40
2023-10-29T09:10:43.936Z,9.40
2023-10-29T09:13:11.701Z,9.40
2023-10-29T09:15:39.055Z,9.30
2023-10-29T09:18:07.018Z,9.30
2023-10-29T09:20:34.149Z,9.30
2023-10-29T09:23:01.256Z,9.30
2023-10-29T09:25:28.505Z,9.30
2023-10-29T09:27:55.620Z,9.30
2023-10-29T09:30:22.911Z,9.30
2023-10-29T09:32:50.340Z,9.30
2023-10-29T09:35:17.631Z,9.40
2023-10-29T09:37:44.774Z,9.40
2023-10-29T09:40:15.462Z,9.40
2023-10-29T09:42:55.901Z,9.30
2023-10-29T09:45:27.788Z,9.30
2023-10-29T09:47:55.678Z,9.40
2023-10-29T09:50:23.386Z,9.30
2023-10-29T09:52:51.611Z,9.30
2023-10-29T09:55:22.176Z,9.30
2023-10-29T09:57:50.596Z,9.30
2023-10-29T10:00:18.412Z,9.30
2023-10-29T10:02:59.419Z,9.30
2023-10-29T10:05:29.286Z,9.30
2023-10-29T10:07:56.721Z,9.30
2023-10-29T10:10:41.890Z,9.30
2023-10-29T10:13:09.983Z,9.40
2023-10-29T10:15:38.446Z,9.40
2023-10-29T10:18:06.964Z,9.40
2023-10-29T10:20:36.061Z,9.30
2023-10-29T10:23:12.369Z,9.30
2023-10-29T10:25:39.859Z,9.30
2023-10-29T10:28:07.798Z,9.30
2023-10-29T10:30:36.050Z,9.30
2023-10-29T10:33:20.374Z,9.30
2023-10-29T10:35:52.844Z,9.30
2023-10-29T10:38:21.218Z,9.30
2023-10-29T10:40:51.104Z,9.30
2023-10-29T10:43:21.115Z,9.30
2023-10-29T10:45:52.219Z,9.30
2023-10-29T10:48:19.841Z,9.30
2023-10-29T10:50:48.266Z,9.30
2023-10-29T10:53:16.043Z,9.30
2023-10-29T10:56:01.379Z,9.20
2023-10-29T10:58:31.163Z,9.30
2023-10-29T11:01:00.434Z,9.30
2023-10-29T11:03:33.326Z,9.20
2023-10-29T11:06:01.597Z,9.20
2023-10-29T11:08:28.955Z,9.20
2023-10-29T11:10:58.624Z,9.20
2023-10-29T11:13:27.746Z,9.20
2023-10-29T11:15:56.469Z,9.10
2023-10-29T11:18:33.825Z,9.20
2023-10-29T11:21:03.629Z,9.20
2023-10-29T11:23:31.495Z,9.20
2023-10-29T11:26:29.362Z,9.20
2023-10-29T11:28:56.729Z,9.20
2023-10-29T11:31:26.475Z,9.10
2023-10-29T11:33:56.865Z,9.10
2023-10-29T11:36:34.057Z,9.10
2023-10-29T11:39:16.658Z,9.20
2023-10-29T11:41:45.788Z,9.10
2023-10-29T11:44:19.395Z,9.10
2023-10-29T11:47:04.293Z,9.20
2023-10-29T11:49:43.408Z,9.20
2023-10-29T11:52:10.510Z,9.20
2023-10-29T11:54:40.170Z,9.10
2023-10-29T11:57:08.013Z,9.10
2023-10-29T11:59:35.232Z,9.10
2023-10-29T12:02:02.506Z,9.10
2023-10-29T12:04:31.590Z,9.10
2023-10-29T12:06:59.348Z,9.10
2023-10-29T12:09:28.798Z,9.20
2023-10-29T12:11:56.611Z,9.20
2023-10-29T12:14:44.886Z,9.20
2023-10-29T12:17:12.487Z,9.20
2023-10-29T12:19:44.949Z,9.20
2023-10-29T12:22:21.900Z,9.20
2023-10-29T12:24:58.476Z,9.20
2023-10-29T12:27:26.319Z,9.20
2023-10-29T12:29:53.670Z,9.10
2023-10-29T12:32:23.791Z,9.10
2023-10-29T12:34:54.837Z,9.10
2023-10-29T12:37:32.080Z,9.10
2023-10-29T12:40:01.755Z,9.10
2023-10-29T12:42:54.614Z,9.10
2023-10-29T12:45:29.944Z,9.10
2023-10-29T12:48:16.385Z,9.00
2023-10-29T12:50:53.932Z,9.00
2023-10-29T12:53:32.226Z,8.90
2023-10-29T12:56:01.493Z,8.90
2023-10-29T12:58:32.112Z,8.90
2023-10-29T13:01:00.927Z,8.90
2023-10-29T13:03:28.984Z,8.90
2023-10-29T13:05:56.464Z,8.90
2023-10-29T13:08:25.681Z,8.90
2023-10-29T13:10:53.611Z,8.90
2023-10-29T13:13:24.521Z,8.90
2023-10-29T13:15:52.224Z,8.90
2023-10-29T13:18:20.514Z,8.80
2023-10-29T13:20:48.578Z,8.80
2023-10-29T13:23:15.722Z,8.80
2023-10-29T13:25:43.945Z,8.70
2023-10-29T13:28:11.435Z,8.70
2023-10-29T13:30:38.560Z,8.70
2023-10-29T13:33:05.701Z,8.80
2023-10-29T13:35:33.292Z,8.80
2023-10-29T13:38:00.597Z,8.70
2023-10-29T13:40:27.679Z,8.70
2023-10-29T13:42:54.834Z,8.80
2023-10-29T13:45:21.950Z,8.80
2023-10-29T13:47:49.234Z,8.80
2023-10-29T13:50:16.385Z,8.80
2023-10-29T13:52:43.530Z,8.80
2023-10-29T13:55:10.983Z,8.80
2023-10-29T13:57:38.157Z,8.80
2023-10-29T14:00:08.167Z,8.80
2023-10-29T14:02:39.399Z,8.80
2023-10-29T14:05:07.398Z,8.80
2023-10-29T14:07:34.513Z,8.80
2023-10-29T14:10:01.664Z,8.80
2023-10-29T14:12:29.616Z,8.70
2023-10-29T14:14:58.139Z,8.70
2023-10-29T14:17:25.593Z,8.70
2023-10-29T14:19:52.867Z,8.70
2023-10-29T14:22:20.150Z,8.70
2023-10-29T14:24:47.377Z,8.70
2023-10-29T14:27:14.667Z,8.80
2023-10-29T14:29:41.809Z,8.80
2023-10-29T14:32:09.298Z,8.80
2023-10-29T14:34:36.489Z,8.80
2023-10-29T14:37:03.876Z,8.80
2023-10-29T14:39:30.966Z,8.80
2023-10-29T14:41:59.391Z,8.80
2023-10-29T14:44:26.616Z,8.80
2023-10-29T14:46:53.698Z,8.70
2023-10-29T14:49:20.811Z,8.80
2023-10-29T14:51:47.898Z,8.80
2023-10-29T14:54:15.175Z,8.80
2023-10-29T14:56:42.636Z,8.80
2023-10-29T14:59:11.760Z,8.80
2023-10-29T15:01:39.576Z,8.80
2023-10-29T15:04:10.531Z,8.80
2023-10-29T15:06:42.501Z,8.80
2023-10-29T15:09:10.706Z,8.80
2023-10-29T15:11:37.728Z,8.70
2023-10-29T15:14:06.938Z,8.70
2023-10-29T15:16:34.361Z,8.70
2023-10-29T15:19:04.634Z,8.70
2023-10-29T15:21:34.081Z,8.70
2023-10-29T15:24:01.626Z,8.70
2023-10-29T15:26:28.774Z,8.70
2023-10-29T15:28:55.908Z,8.70
2023-10-29T15:31:23.234Z,8.70
2023-10-29T15:33:50.430Z,8.70
2023-10-29T15:36:17.595Z,8.70
2023-10-29T15:38:44.963Z,8.70
2023-10-29T15:41:12.142Z,8.70
2023-10-29T15:43:39.429Z,8.70
2023-10-29T15:46:06.980Z,8.70
2023-10-29T15:48:34.398Z,8.70
2023-10-29T15:51:02.269Z,8.70
2023-10-29T15:53:29.507Z,8.70
2023-10-29T15:55:57.761Z,8.70
2023-10-29T15:58:24.854Z,8.70
2023-10-29T16:00:52.229Z,8.70
2023-10-29T16:03:19.446Z,8.70
2023-10-29T16:05:46.650Z,8.70
2023-10-29T16:08:13.698Z,8.70
2023-10-29T16:10:41.476Z,8.70
2023-10-29T16:13:08.530Z,8.70
2023-10-29T16:15:35.566Z,8.70
2023-10-29T16:18:03.498Z,8.70
2023-10-29T16:20:30.585Z,8.70
2023-10-29T16:22:57.873Z,8.70
2023-10-29T16:25:25.073Z,8.70
2023-10-29T16:27:52.282Z,8.70
2023-10-29T16:30:21.315Z,8.70
2023-10-29T16:32:48.502Z,8.70
2023-10-29T16:35:15.786Z,8.70
2023-10-29T16:37:44.131Z,8.70
2023-10-29T16:40:14.468Z,8.70
2023-10-29T16:42:41.593Z,8.70
2023-10-29T16:45:09.852Z,8.70
2023-10-29T16:47:37.158Z,8.60
2023-10-29T16:50:05.063Z,8.60
2023-10-29T16:52:32.243Z,8.60
2023-10-29T16:54:59.326Z,8.60
2023-10-29T16:57:26.419Z,8.60
2023-10-29T16:59:53.521Z,8.60
2023-10-29T17:02:20.655Z,8.60
2023-10-29T17:04:47.834Z,8.60
2023-10-29T17:07:14.907Z,8.60
2023-10-29T17:09:41.990Z,8.60
2023-10-29T17:12:09.493Z,8.60
2023-10-29T17:14:36.691Z,8.60
2023-10-29T17:17:04.561Z,8.60
2023-10-29T17:19:32.585Z,8.60
2023-10-29T17:21:59.907Z,8.50
2023-10-29T17:24:27.616Z,8.60
2023-10-29T17:26:55.620Z,8.50
2023-10-29T17:29:23.003Z,8.50
2023-10-29T17:31:51.300Z,8.50
2023-10-29T17:34:18.561Z,8.50
2023-10-29T17:36:46.121Z,8.50
2023-10-29T17:39:16.203Z,8.50
2023-10-29T17:41:43.551Z,8.40
2023-10-29T17:44:10.655Z,8.40
2023-10-29T17:46:38.770Z,8.40
2023-10-29T17:49:06.526Z,8.40
2023-10-29T17:51:34.194Z,8.40
2023-10-29T17:54:01.773Z,8.40
2023-10-29T17:56:30.308Z,8.50
2023-10-29T17:58:57.643Z,8.50
2023-10-29T18:01:24.873Z,8.50
2023-10-29T18:03:55.440Z,8.50
2023-10-29T18:06:24.063Z,8.60
2023-10-29T18:08:51.742Z,8.60
2023-10-29T18:11:19.322Z,8.60
2023-10-29T18:13:47.245Z,8.60
2023-10-29T18:16:14.581Z,8.60
2023-10-29T18:18:41.912Z,8.60
2023-10-29T18:21:09.207Z,8.60
2023-10-29T18:23:36.409Z,8.60
2023-10-29T18:26:04.273Z,8.60
2023-10-29T18:28:32.292Z,8.60
2023-10-29T18:31:05.168Z,8.60
2023-10-29T18:33:33.001Z,8.60
2023-10-29T18:36:10.620Z,8.60
2023-10-29T18:38:38.486Z,8.50
2023-10-29T18:41:19.884Z,8.60
2023-10-29T18:43:47.742Z,8.60
2023-10-29T18:46:16.133Z,8.60
2023-10-29T18:48:43.411Z,8.70
2023-10-29T18:51:10.571Z,8.70
2023-10-29T18:53:37.772Z,8.70
2023-10-29T18:56:05.716Z,8.70
2023-10-29T18:58:32.881Z,8.80
2023-10-29T19:01:12.438Z,8.80
2023-10-29T19:03:41.403Z,8.80
2023-10-29T19:06:10.772Z,8.80
2023-10-29T19:08:38.365Z,8.80
2023-10-29T19:11:10.277Z,8.90
2023-10-29T19:13:37.515Z,8.90
2023-10-29T19:16:08.267Z,8.90
2023-10-29T19:18:35.777Z,9.00
2023-10-29T19:21:02.988Z,9.00
2023-10-29T19:23:31.296Z,9.00
2023-10-29T19:26:02.139Z,9.00
2023-10-29T19:28:29.287Z,9.00
2023-10-29T19:31:20.510Z,9.00
2023-10-29T19:33:43.565Z,9.00
2023-10-29T19:36:15.228Z,9.00
2023-10-29T19:38:42.758Z,8.90
2023-10-29T19:41:10.201Z,9.00
2023-10-29T19:43:37.338Z,9.00
2023-10-29T19:46:05.364Z,9.00
2023-10-29T19:48:32.720Z,8.90
2023-10-29T19:51:07.602Z,8.90
2023-10-29T19:53:35.969Z,9.00
2023-10-29T19:56:14.935Z,9.00
2023-10-29T19:58:42.017Z,9.00
2023-10-29T20:01:10.987Z,9.00
2023-10-29T20:03:38.311Z,9.10
2023-10-29T20:06:10.079Z,9.10
2023-10-29T20:08:38.494Z,9.10
2023-10-29T20:11:15.587Z,9.10
2023-10-29T20:13:47.170Z,9.10
2023-10-29T20:16:15.230Z,9.10
2023-10-29T20:18:42.533Z,9.10
2023-10-29T20:21:16.934Z,9.10
2023-10-29T20:23:46.966Z,9.10
2023-10-29T20:26:14.786Z,9.20
2023-10-29T20:28:41.988Z,9.20
2023-10-29T20:31:09.306Z,9.20
2023-10-29T20:33:36.508Z,9.10
2023-10-29T20:36:04.435Z,9.00
2023-10-29T20:38:31.626Z,8.90
2023-10-29T20:40:58.856Z,8.80
2023-10-29T20:43:25.967Z,8.80
2023-10-29T20:45:54.245Z,8.80
2023-10-29T20:48:23.138Z,8.80
2023-10-29T20:50:54.796Z,8.70
2023-10-29T20:53:22.312Z,8.70
2023-10-29T20:55:49.637Z,8.70
2023-10-29T20:58:16.803Z,8.60
2023-10-29T21:00:49.986Z,8.60
2023-10-29T21:03:17.522Z,8.50
2023-10-29T21:05:46.998Z,8.50
2023-10-29T21:08:15.054Z,8.50
2023-10-29T21:10:42.206Z,8.50
2023-10-29T21:13:09.286Z,8.50
2023-10-29T21:15:40.278Z,8.50
2023-10-29T21:18:07.751Z,8.50
2023-10-29T21:20:35.302Z,8.50
2023-10-29T21:23:02.426Z,8.50
2023-10-29T21:25:29.529Z,8.40
2023-10-29T21:27:56.965Z,8.40
2023-10-29T21:30:24.139Z,8.40
2023-10-29T21:32:51.590Z,8.40
2023-10-29T21:35:19.749Z,8.40
2023-10-29T21:37:47.011Z,8.40
2023-10-29T21:40:14.816Z,8.40
2023-10-29T21:42:42.097Z,8.40
2023-10-29T21:45:09.644Z,8.40
2023-10-29T21:47:39.072Z,8.30
2023-10-29T21:50:07.580Z,8.20
2023-10-29T21:52:34.758Z,8.20
2023-10-29T21:55:01.968Z,8.10
2023-10-29T21:57:29.224Z,8.20
2023-10-29T21:59:56.360Z,8.20
2023-10-29T22:02:23.449Z,8.10
2023-10-29T22:04:50.562Z,8.10
2023-10-29T22:07:17.776Z,8.10
2023-10-29T22:09:45.045Z,8.10
2023-10-29T22:12:12.978Z,8.10
2023-10-29T22:14:40.050Z,8.10
2023-10-29T22:17:07.112Z,8.10
2023-10-29T22:19:34.179Z,8.10
2023-10-29T22:22:01.289Z,8.10
2023-10-29T22:24:29.365Z,8.10
2023-10-29T22:26:59.044Z,8.10
2023-10-29T22:29:26.328Z,8.10
2023-10-29T22:31:53.405Z,8.00
2023-10-29T22:34:20.612Z,8.10
2023-10-29T22:36:47.815Z,8.10
2023-10-29T22:39:15.021Z,8.10
2023-10-29T22:41:42.216Z,8.10
2023-10-29T22:44:09.263Z,8.10
2023-10-29T22:46:36.341Z,8.10
2023-10-29T22:49:03.512Z,8.00
2023-10-29T22:51:30.572Z,8.00
2023-10-29T22:53:57.682Z,8.00
2023-10-29T22:56:24.715Z,8.00
2023-10-29T22:58:51.783Z,8.00
2023-10-29T23:01:19.188Z,8.00
2023-10-29T23:03:46.374Z,8.00
2023-10-29T23:06:14.069Z,8.00
2023-10-29T23:08:41.941Z,8.00
2023-10-29T23:11:15.698Z,8.00
2023-10-29T23:13:46.011Z,8.00
2023-10-29T23:16:14.020Z,8.00
2023-10-29T23:18:41.512Z,8.00
2023-10-29T23:21:08.666Z,8.00
2023-10-29T23:23:35.839Z,7.90
2023-10-29T23:26:02.954Z,8.00
2023-10-29T23:28:37.258Z,8.00
2023-10-29T23:31:06.427Z,7.90
2023-10-29T23:33:33.630Z,7.90
2023-10-29T23:36:00.764Z,7.90
2023-10-29T23:38:27.819Z,7.90
2023-10-29T23:40:55.155Z,7.90
2023-10-29T23:43:22.235Z,7.90
2023-10-29T23:45:49.266Z,7.90
2023-10-29T23:48:16.374Z,7.90
2023-10-29T23:50:43.515Z,7.90
2023-10-29T23:53:11.191Z,7.90
2023-10-29T23:55:38.273Z,7.90
2023-10-29T23:58:05.352Z,7.80
